sensor_id;sensor_type;location;lat;lon;timestamp;P1;durP1;ratioP1;P2;durP2;ratioP2
17925;SDS011;9088;55.674;13.354;2023-04-03T00:01:44;0.40;;;0.40;;
17925;SDS011;9088;55.674;13.354;2023-04-03T00:04:11;0.40;;;0.40;;
17925;SDS011;9088;55.674;13.354;2023-04-03T00:06:40;0.40;;;0.40;;
17925;SDS011;9088;55.674;13.354;2023-04-03T00:09:07;0.40;;;0.40;;
17925;SDS011;9088;55.674;13.354;2023-04-03T00:11:34;0.40;;;0.40;;
17925;SDS011;9088;55.674;13.354;2023-04-03T00:14:01;0.40;;;0.40;;
17925;SDS011;9088;55.674;13.354;2023-04-03T00:16:28;0.40;;;0.40;;
17925;SDS011;9088;55.674;13.354;2023-04-03T00:18:55;0.40;;;0.40;;
17925;SDS011;9088;55.674;13.354;2023-04-03T00:21:22;0.40;;;0.40;;
17925;SDS011;9088;55.674;13.354;2023-04-03T00:23:50;0.40;;;0.40;;
17925;SDS011;9088;55.674;13.354;2023-04-03T00:26:17;0.50;;;0.50;;
17925;SDS011;9088;55.674;13.354;2023-04-03T00:28:45;0.50;;;0.50;;
17925;SDS011;9088;55.674;13.354;2023-04-03T00:31:13;0.50;;;0.50;;
17925;SDS011;9088;55.674;13.354;2023-04-03T00:33:40;0.50;;;0.50;;
17925;SDS011;9088;55.674;13.354;2023-04-03T00:36:08;0.40;;;0.40;;
17925;SDS011;9088;55.674;13.354;2023-04-03T00:38:35;0.50;;;0.50;;
17925;SDS011;9088;55.674;13.354;2023-04-03T00:41:04;0.50;;;0.50;;
17925;SDS011;9088;55.674;13.354;2023-04-03T00:43:31;0.50;;;0.50;;
17925;SDS011;9088;55.674;13.354;2023-04-03T00:45:58;0.50;;;0.50;;
17925;SDS011;9088;55.674;13.354;2023-04-03T00:48:27;0.40;;;0.40;;
17925;SDS011;9088;55.674;13.354;2023-04-03T00:50:54;0.40;;;0.40;;
17925;SDS011;9088;55.674;13.354;2023-04-03T00:53:23;0.40;;;0.40;;
17925;SDS011;9088;55.674;13.354;2023-04-03T00:55:50;0.40;;;0.40;;
17925;SDS011;9088;55.674;13.354;2023-04-03T00:58:20;0.50;;;0.50;;
17925;SDS011;9088;55.674;13.354;2023-04-03T01:00:50;0.50;;;0.50;;
17925;SDS011;9088;55.674;13.354;2023-04-03T01:03:22;0.50;;;0.50;;
17925;SDS011;9088;55.674;13.354;2023-04-03T01:05:49;0.50;;;0.50;;
17925;SDS011;9088;55.674;13.354;2023-04-03T01:08:17;0.40;;;0.40;;
17925;SDS011;9088;55.674;13.354;2023-04-03T01:10:44;0.40;;;0.40;;
17925;SDS011;9088;55.674;13.354;2023-04-03T01:13:20;0.50;;;0.50;;
17925;SDS011;9088;55.674;13.354;2023-04-03T01:15:47;0.40;;;0.40;;
17925;SDS011;9088;55.674;13.354;2023-04-03T01:18:14;0.40;;;0.40;;
17925;SDS011;9088;55.674;13.354;2023-04-03T01:23:38;0.40;;;0.40;;
17925;SDS011;9088;55.674;13.354;2023-04-03T01:26:08;0.40;;;0.40;;
17925;SDS011;9088;55.674;13.354;2023-04-03T01:28:38;0.40;;;0.40;;
17925;SDS011;9088;55.674;13.354;2023-04-03T01:31:07;0.40;;;0.40;;
17925;SDS011;9088;55.674;13.354;2023-04-03T01:33:38;0.40;;;0.40;;
17925;SDS011;9088;55.674;13.354;2023-04-03T01:36:05;0.40;;;0.40;;
17925;SDS011;9088;55.674;13.354;2023-04-03T01:38:33;0.50;;;0.50;;
17925;SDS011;9088;55.674;13.354;2023-04-03T01:41:00;0.50;;;0.50;;
17925;SDS011;9088;55.674;13.354;2023-04-03T01:43:27;0.50;;;0.50;;
17925;SDS011;9088;55.674;13.354;2023-04-03T01:45:54;0.50;;;0.50;;
17925;SDS011;9088;55.674;13.354;2023-04-03T01:48:21;0.50;;;0.50;;
17925;SDS011;9088;55.674;13.354;2023-04-03T01:50:53;0.50;;;0.50;;
17925;SDS011;9088;55.674;13.354;2023-04-03T01:53:20;0.50;;;0.50;;
17925;SDS011;9088;55.674;13.354;2023-04-03T01:55:47;0.50;;;0.50;;
17925;SDS011;9088;55.674;13.354;2023-04-03T01:58:15;0.50;;;0.50;;
17925;SDS011;9088;55.674;13.354;2023-04-03T02:00:43;0.50;;;0.50;;
17925;SDS011;9088;55.674;13.354;2023-04-03T02:03:10;0.50;;;0.50;;
17925;SDS011;9088;55.674;13.354;2023-04-03T02:05:37;0.50;;;0.50;;
17925;SDS011;9088;55.674;13.354;2023-04-03T02:08:05;0.50;;;0.50;;
17925;SDS011;9088;55.674;13.354;2023-04-03T02:10:32;0.50;;;0.50;;
17925;SDS011;9088;55.674;13.354;2023-04-03T02:12:59;0.50;;;0.50;;
17925;SDS011;9088;55.674;13.354;2023-04-03T02:15:26;0.50;;;0.50;;
17925;SDS011;9088;55.674;13.354;2023-04-03T02:17:53;0.50;;;0.50;;
17925;SDS011;9088;55.674;13.354;2023-04-03T02:20:23;0.50;;;0.50;;
17925;SDS011;9088;55.674;13.354;2023-04-03T02:22:51;0.50;;;0.50;;
17925;SDS011;9088;55.674;13.354;2023-04-03T02:25:19;0.50;;;0.50;;
17925;SDS011;9088;55.674;13.354;2023-04-03T02:27:46;0.50;;;0.50;;
17925;SDS011;9088;55.674;13.354;2023-04-03T02:30:13;0.60;;;0.60;;
17925;SDS011;9088;55.674;13.354;2023-04-03T02:32:40;0.50;;;0.50;;
17925;SDS011;9088;55.674;13.354;2023-04-03T02:35:07;0.50;;;0.50;;
17925;SDS011;9088;55.674;13.354;2023-04-03T02:37:34;0.53;;;0.53;;
17925;SDS011;9088;55.674;13.354;2023-04-03T02:40:02;0.60;;;0.60;;
17925;SDS011;9088;55.674;13.354;2023-04-03T02:42:31;0.60;;;0.60;;
17925;SDS011;9088;55.674;13.354;2023-04-03T02:45:01;0.60;;;0.60;;
17925;SDS011;9088;55.674;13.354;2023-04-03T02:47:28;0.60;;;0.60;;
17925;SDS011;9088;55.674;13.354;2023-04-03T02:49:55;0.60;;;0.60;;
17925;SDS011;9088;55.674;13.354;2023-04-03T02:52:22;0.60;;;0.60;;
17925;SDS011;9088;55.674;13.354;2023-04-03T02:54:49;0.60;;;0.60;;
17925;SDS011;9088;55.674;13.354;2023-04-03T02:57:16;0.60;;;0.60;;
17925;SDS011;9088;55.674;13.354;2023-04-03T02:59:45;0.60;;;0.60;;
17925;SDS011;9088;55.674;13.354;2023-04-03T03:02:12;0.60;;;0.60;;
17925;SDS011;9088;55.674;13.354;2023-04-03T03:04:40;0.70;;;0.70;;
17925;SDS011;9088;55.674;13.354;2023-04-03T03:07:07;0.70;;;0.70;;
17925;SDS011;9088;55.674;13.354;2023-04-03T03:09:35;0.60;;;0.60;;
17925;SDS011;9088;55.674;13.354;2023-04-03T03:12:02;0.70;;;0.70;;
17925;SDS011;9088;55.674;13.354;2023-04-03T03:14:29;0.60;;;0.60;;
17925;SDS011;9088;55.674;13.354;2023-04-03T03:16:57;0.60;;;0.60;;
17925;SDS011;9088;55.674;13.354;2023-04-03T03:19:24;0.60;;;0.60;;
17925;SDS011;9088;55.674;13.354;2023-04-03T03:21:51;0.70;;;0.70;;
17925;SDS011;9088;55.674;13.354;2023-04-03T03:24:18;0.70;;;0.70;;
17925;SDS011;9088;55.674;13.354;2023-04-03T03:26:45;0.70;;;0.70;;
17925;SDS011;9088;55.674;13.354;2023-04-03T03:29:12;0.70;;;0.70;;
17925;SDS011;9088;55.674;13.354;2023-04-03T03:31:39;0.70;;;0.70;;
17925;SDS011;9088;55.674;13.354;2023-04-03T03:34:08;0.80;;;0.80;;
17925;SDS011;9088;55.674;13.354;2023-04-03T03:36:35;0.70;;;0.70;;
17925;SDS011;9088;55.674;13.354;2023-04-03T03:39:02;0.70;;;0.70;;
17925;SDS011;9088;55.674;13.354;2023-04-03T03:41:29;0.70;;;0.70;;
17925;SDS011;9088;55.674;13.354;2023-04-03T03:43:56;0.70;;;0.70;;
17925;SDS011;9088;55.674;13.354;2023-04-03T03:46:26;0.70;;;0.70;;
17925;SDS011;9088;55.674;13.354;2023-04-03T03:48:53;0.70;;;0.70;;
17925;SDS011;9088;55.674;13.354;2023-04-03T03:51:21;0.70;;;0.70;;
17925;SDS011;9088;55.674;13.354;2023-04-03T03:53:51;0.70;;;0.70;;
17925;SDS011;9088;55.674;13.354;2023-04-03T03:56:18;0.70;;;0.70;;
17925;SDS011;9088;55.674;13.354;2023-04-03T03:58:45;0.70;;;0.70;;
17925;SDS011;9088;55.674;13.354;2023-04-03T04:01:12;0.70;;;0.70;;
17925;SDS011;9088;55.674;13.354;2023-04-03T04:03:40;0.70;;;0.70;;
17925;SDS011;9088;55.674;13.354;2023-04-03T04:06:07;0.70;;;0.70;;
17925;SDS011;9088;55.674;13.354;2023-04-03T04:08:35;0.60;;;0.60;;
17925;SDS011;9088;55.674;13.354;2023-04-03T04:11:02;0.70;;;0.70;;
17925;SDS011;9088;55.674;13.354;2023-04-03T04:13:29;0.70;;;0.70;;
17925;SDS011;9088;55.674;13.354;2023-04-03T04:15:56;0.70;;;0.70;;
17925;SDS011;9088;55.674;13.354;2023-04-03T04:18:23;0.80;;;0.80;;
17925;SDS011;9088;55.674;13.354;2023-04-03T04:20:50;0.80;;;0.80;;
17925;SDS011;9088;55.674;13.354;2023-04-03T04:23:18;0.80;;;0.80;;
17925;SDS011;9088;55.674;13.354;2023-04-03T04:25:46;0.70;;;0.70;;
17925;SDS011;9088;55.674;13.354;2023-04-03T04:28:13;0.80;;;0.80;;
17925;SDS011;9088;55.674;13.354;2023-04-03T04:30:40;0.73;;;0.73;;
17925;SDS011;9088;55.674;13.354;2023-04-03T04:33:07;0.80;;;0.80;;
17925;SDS011;9088;55.674;13.354;2023-04-03T04:35:34;0.80;;;0.80;;
17925;SDS011;9088;55.674;13.354;2023-04-03T04:38:02;0.80;;;0.80;;
17925;SDS011;9088;55.674;13.354;2023-04-03T04:40:33;0.90;;;0.90;;
17925;SDS011;9088;55.674;13.354;2023-04-03T04:43:02;0.90;;;0.90;;
17925;SDS011;9088;55.674;13.354;2023-04-03T04:45:30;0.90;;;0.90;;
17925;SDS011;9088;55.674;13.354;2023-04-03T04:47:57;5.70;;;5.50;;
17925;SDS011;9088;55.674;13.354;2023-04-03T04:50:25;5.80;;;5.60;;
17925;SDS011;9088;55.674;13.354;2023-04-03T04:52:52;5.87;;;5.67;;
17925;SDS011;9088;55.674;13.354;2023-04-03T04:55:19;5.70;;;5.50;;
17925;SDS011;9088;55.674;13.354;2023-04-03T04:57:46;5.60;;;5.40;;
17925;SDS011;9088;55.674;13.354;2023-04-03T05:00:14;5.53;;;5.33;;
17925;SDS011;9088;55.674;13.354;2023-04-03T05:02:42;5.70;;;5.50;;
17925;SDS011;9088;55.674;13.354;2023-04-03T05:05:09;5.50;;;5.30;;
17925;SDS011;9088;55.674;13.354;2023-04-03T05:07:36;5.50;;;5.30;;
17925;SDS011;9088;55.674;13.354;2023-04-03T05:10:03;5.40;;;5.20;;
17925;SDS011;9088;55.674;13.354;2023-04-03T05:12:31;5.40;;;5.20;;
17925;SDS011;9088;55.674;13.354;2023-04-03T05:14:58;5.60;;;5.40;;
17925;SDS011;9088;55.674;13.354;2023-04-03T05:17:28;5.30;;;5.10;;
17925;SDS011;9088;55.674;13.354;2023-04-03T05:19:55;5.23;;;5.03;;
17925;SDS011;9088;55.674;13.354;2023-04-03T05:22:22;5.20;;;5.00;;
17925;SDS011;9088;55.674;13.354;2023-04-03T05:24:49;5.10;;;4.90;;
17925;SDS011;9088;55.674;13.354;2023-04-03T05:27:16;4.10;;;4.00;;
17925;SDS011;9088;55.674;13.354;2023-04-03T05:29:43;4.27;;;4.10;;
17925;SDS011;9088;55.674;13.354;2023-04-03T05:32:11;4.03;;;3.93;;
17925;SDS011;9088;55.674;13.354;2023-04-03T05:34:39;4.40;;;4.20;;
17925;SDS011;9088;55.674;13.354;2023-04-03T05:37:06;4.10;;;4.00;;
17925;SDS011;9088;55.674;13.354;2023-04-03T05:39:33;4.10;;;4.00;;
17925;SDS011;9088;55.674;13.354;2023-04-03T05:42:00;4.00;;;3.90;;
17925;SDS011;9088;55.674;13.354;2023-04-03T05:44:27;4.00;;;3.90;;
17925;SDS011;9088;55.674;13.354;2023-04-03T05:46:54;3.80;;;3.70;;
17925;SDS011;9088;55.674;13.354;2023-04-03T05:49:21;3.80;;;3.70;;
17925;SDS011;9088;55.674;13.354;2023-04-03T05:51:50;3.90;;;3.80;;
17925;SDS011;9088;55.674;13.354;2023-04-03T05:54:17;3.70;;;3.60;;
17925;SDS011;9088;55.674;13.354;2023-04-03T05:56:45;3.70;;;3.60;;
17925;SDS011;9088;55.674;13.354;2023-04-03T05:59:14;3.70;;;3.60;;
17925;SDS011;9088;55.674;13.354;2023-04-03T06:01:41;3.50;;;3.40;;
17925;SDS011;9088;55.674;13.354;2023-04-03T06:04:08;3.60;;;3.50;;
17925;SDS011;9088;55.674;13.354;2023-04-03T06:06:43;3.60;;;3.50;;
17925;SDS011;9088;55.674;13.354;2023-04-03T06:09:11;3.70;;;3.60;;
17925;SDS011;9088;55.674;13.354;2023-04-03T06:11:38;3.60;;;3.50;;
17925;SDS011;9088;55.674;13.354;2023-04-03T06:14:06;3.60;;;3.50;;
17925;SDS011;9088;55.674;13.354;2023-04-03T06:16:34;3.60;;;3.50;;
17925;SDS011;9088;55.674;13.354;2023-04-03T06:19:01;3.60;;;3.50;;
17925;SDS011;9088;55.674;13.354;2023-04-03T06:21:31;3.70;;;3.60;;
17925;SDS011;9088;55.674;13.354;2023-04-03T06:23:58;3.30;;;3.20;;
17925;SDS011;9088;55.674;13.354;2023-04-03T06:26:26;3.63;;;3.53;;
17925;SDS011;9088;55.674;13.354;2023-04-03T06:28:53;3.60;;;3.50;;
17925;SDS011;9088;55.674;13.354;2023-04-03T06:31:20;3.70;;;3.60;;
17925;SDS011;9088;55.674;13.354;2023-04-03T06:33:47;3.87;;;3.77;;
17925;SDS011;9088;55.674;13.354;2023-04-03T06:36:17;3.90;;;3.80;;
17925;SDS011;9088;55.674;13.354;2023-04-03T06:38:46;3.70;;;3.60;;
17925;SDS011;9088;55.674;13.354;2023-04-03T06:41:13;4.00;;;3.90;;
17925;SDS011;9088;55.674;13.354;2023-04-03T06:43:42;3.50;;;3.40;;
17925;SDS011;9088;55.674;13.354;2023-04-03T06:46:12;3.60;;;3.50;;
17925;SDS011;9088;55.674;13.354;2023-04-03T06:48:40;3.60;;;3.50;;
17925;SDS011;9088;55.674;13.354;2023-04-03T06:51:10;3.80;;;3.70;;
17925;SDS011;9088;55.674;13.354;2023-04-03T06:53:37;3.60;;;3.50;;
17925;SDS011;9088;55.674;13.354;2023-04-03T06:56:05;3.50;;;3.40;;
17925;SDS011;9088;55.674;13.354;2023-04-03T06:58:32;3.40;;;3.30;;
17925;SDS011;9088;55.674;13.354;2023-04-03T07:01:00;3.70;;;3.60;;
17925;SDS011;9088;55.674;13.354;2023-04-03T07:03:27;3.80;;;3.70;;
17925;SDS011;9088;55.674;13.354;2023-04-03T07:05:54;3.67;;;3.57;;
17925;SDS011;9088;55.674;13.354;2023-04-03T07:08:21;3.80;;;3.70;;
17925;SDS011;9088;55.674;13.354;2023-04-03T07:10:51;3.60;;;3.50;;
17925;SDS011;9088;55.674;13.354;2023-04-03T07:13:18;3.50;;;3.40;;
17925;SDS011;9088;55.674;13.354;2023-04-03T07:15:45;3.40;;;3.30;;
17925;SDS011;9088;55.674;13.354;2023-04-03T07:18:13;3.60;;;3.50;;
17925;SDS011;9088;55.674;13.354;2023-04-03T07:20:42;3.60;;;3.50;;
17925;SDS011;9088;55.674;13.354;2023-04-03T07:23:09;3.60;;;3.50;;
17925;SDS011;9088;55.674;13.354;2023-04-03T07:25:36;3.67;;;3.57;;
17925;SDS011;9088;55.674;13.354;2023-04-03T07:28:03;3.70;;;3.60;;
17925;SDS011;9088;55.674;13.354;2023-04-03T07:30:33;3.70;;;3.60;;
17925;SDS011;9088;55.674;13.354;2023-04-03T07:33:00;3.60;;;3.50;;
17925;SDS011;9088;55.674;13.354;2023-04-03T07:35:30;3.57;;;3.47;;
17925;SDS011;9088;55.674;13.354;2023-04-03T07:37:57;3.50;;;3.40;;
17925;SDS011;9088;55.674;13.354;2023-04-03T07:40:27;3.50;;;3.40;;
17925;SDS011;9088;55.674;13.354;2023-04-03T07:42:54;3.40;;;3.30;;
17925;SDS011;9088;55.674;13.354;2023-04-03T07:45:21;3.40;;;3.30;;
17925;SDS011;9088;55.674;13.354;2023-04-03T07:47:48;3.60;;;3.50;;
17925;SDS011;9088;55.674;13.354;2023-04-03T07:50:16;3.50;;;3.40;;
17925;SDS011;9088;55.674;13.354;2023-04-03T07:52:45;3.03;;;2.93;;
17925;SDS011;9088;55.674;13.354;2023-04-03T07:55:12;3.53;;;3.43;;
17925;SDS011;9088;55.674;13.354;2023-04-03T07:57:39;3.60;;;3.50;;
17925;SDS011;9088;55.674;13.354;2023-04-03T08:00:07;3.80;;;3.70;;
17925;SDS011;9088;55.674;13.354;2023-04-03T08:02:35;3.73;;;3.63;;
17925;SDS011;9088;55.674;13.354;2023-04-03T08:05:02;4.00;;;3.90;;
17925;SDS011;9088;55.674;13.354;2023-04-03T08:07:29;4.00;;;3.90;;
17925;SDS011;9088;55.674;13.354;2023-04-03T08:09:57;4.00;;;3.90;;
17925;SDS011;9088;55.674;13.354;2023-04-03T08:12:25;3.90;;;3.80;;
17925;SDS011;9088;55.674;13.354;2023-04-03T08:14:53;4.07;;;3.97;;
17925;SDS011;9088;55.674;13.354;2023-04-03T08:17:20;3.90;;;3.80;;
17925;SDS011;9088;55.674;13.354;2023-04-03T08:19:47;3.80;;;3.70;;
17925;SDS011;9088;55.674;13.354;2023-04-03T08:22:18;3.90;;;3.80;;
17925;SDS011;9088;55.674;13.354;2023-04-03T08:24:45;3.60;;;3.50;;
17925;SDS011;9088;55.674;13.354;2023-04-03T08:27:14;3.63;;;3.53;;
17925;SDS011;9088;55.674;13.354;2023-04-03T08:29:41;3.70;;;3.60;;
17925;SDS011;9088;55.674;13.354;2023-04-03T08:32:08;3.60;;;3.50;;
17925;SDS011;9088;55.674;13.354;2023-04-03T08:34:37;3.70;;;3.60;;
17925;SDS011;9088;55.674;13.354;2023-04-03T08:37:08;3.70;;;3.60;;
17925;SDS011;9088;55.674;13.354;2023-04-03T08:39:35;3.67;;;3.57;;
17925;SDS011;9088;55.674;13.354;2023-04-03T08:42:05;3.80;;;3.70;;
17925;SDS011;9088;55.674;13.354;2023-04-03T08:44:38;3.90;;;3.80;;
17925;SDS011;9088;55.674;13.354;2023-04-03T08:47:10;3.73;;;3.63;;
17925;SDS011;9088;55.674;13.354;2023-04-03T08:49:39;3.60;;;3.50;;
17925;SDS011;9088;55.674;13.354;2023-04-03T08:52:12;3.33;;;3.23;;
17925;SDS011;9088;55.674;13.354;2023-04-03T08:54:48;3.33;;;3.23;;
17925;SDS011;9088;55.674;13.354;2023-04-03T08:57:15;3.50;;;3.40;;
17925;SDS011;9088;55.674;13.354;2023-04-03T08:59:44;3.57;;;3.47;;
17925;SDS011;9088;55.674;13.354;2023-04-03T09:02:20;3.40;;;3.30;;
17925;SDS011;9088;55.674;13.354;2023-04-03T09:04:49;3.23;;;3.13;;
17925;SDS011;9088;55.674;13.354;2023-04-03T09:07:18;3.30;;;3.20;;
17925;SDS011;9088;55.674;13.354;2023-04-03T09:09:48;3.13;;;3.03;;
17925;SDS011;9088;55.674;13.354;2023-04-03T09:12:17;3.00;;;2.90;;
17925;SDS011;9088;55.674;13.354;2023-04-03T09:14:49;2.90;;;2.80;;
17925;SDS011;9088;55.674;13.354;2023-04-03T09:17:20;2.70;;;2.60;;
17925;SDS011;9088;55.674;13.354;2023-04-03T09:19:51;2.70;;;2.60;;
17925;SDS011;9088;55.674;13.354;2023-04-03T09:22:22;2.67;;;2.57;;
17925;SDS011;9088;55.674;13.354;2023-04-03T09:24:52;2.70;;;2.60;;
17925;SDS011;9088;55.674;13.354;2023-04-03T09:27:22;2.70;;;2.60;;
17925;SDS011;9088;55.674;13.354;2023-04-03T09:29:54;2.70;;;2.60;;
17925;SDS011;9088;55.674;13.354;2023-04-03T09:32:24;2.57;;;2.47;;
17925;SDS011;9088;55.674;13.354;2023-04-03T09:34:52;2.60;;;2.50;;
17925;SDS011;9088;55.674;13.354;2023-04-03T09:42:49;2.70;;;2.60;;
17925;SDS011;9088;55.674;13.354;2023-04-03T09:45:21;2.70;;;2.60;;
17925;SDS011;9088;55.674;13.354;2023-04-03T09:47:49;2.50;;;2.40;;
17925;SDS011;9088;55.674;13.354;2023-04-03T09:50:30;2.50;;;2.40;;
17925;SDS011;9088;55.674;13.354;2023-04-03T09:52:59;2.50;;;2.40;;
17925;SDS011;9088;55.674;13.354;2023-04-03T09:55:30;2.50;;;2.40;;
17925;SDS011;9088;55.674;13.354;2023-04-03T09:57:59;2.50;;;2.40;;
17925;SDS011;9088;55.674;13.354;2023-04-03T10:00:30;2.30;;;2.20;;
17925;SDS011;9088;55.674;13.354;2023-04-03T10:02:58;2.20;;;2.10;;
17925;SDS011;9088;55.674;13.354;2023-04-03T10:05:30;2.37;;;2.27;;
17925;SDS011;9088;55.674;13.354;2023-04-03T10:08:08;2.50;;;2.40;;
17925;SDS011;9088;55.674;13.354;2023-04-03T10:10:35;2.40;;;2.30;;
17925;SDS011;9088;55.674;13.354;2023-04-03T10:13:03;2.30;;;2.20;;
17925;SDS011;9088;55.674;13.354;2023-04-03T10:15:32;2.40;;;2.30;;
17925;SDS011;9088;55.674;13.354;2023-04-03T10:18:02;2.30;;;2.20;;
17925;SDS011;9088;55.674;13.354;2023-04-03T10:20:33;2.10;;;2.00;;
17925;SDS011;9088;55.674;13.354;2023-04-03T10:23:14;2.17;;;2.07;;
17925;SDS011;9088;55.674;13.354;2023-04-03T10:25:46;2.20;;;2.10;;
17925;SDS011;9088;55.674;13.354;2023-04-03T10:28:16;2.13;;;2.03;;
17925;SDS011;9088;55.674;13.354;2023-04-03T10:30:50;2.27;;;2.17;;
17925;SDS011;9088;55.674;13.354;2023-04-03T10:33:23;2.20;;;2.10;;
17925;SDS011;9088;55.674;13.354;2023-04-03T10:35:56;2.30;;;2.20;;
17925;SDS011;9088;55.674;13.354;2023-04-03T10:38:30;2.37;;;2.27;;
17925;SDS011;9088;55.674;13.354;2023-04-03T10:40:59;2.30;;;2.20;;
17925;SDS011;9088;55.674;13.354;2023-04-03T10:43:33;2.20;;;2.10;;
17925;SDS011;9088;55.674;13.354;2023-04-03T10:46:05;2.37;;;2.27;;
17925;SDS011;9088;55.674;13.354;2023-04-03T10:48:41;2.27;;;2.17;;
17925;SDS011;9088;55.674;13.354;2023-04-03T10:51:23;2.40;;;2.30;;
17925;SDS011;9088;55.674;13.354;2023-04-03T10:53:52;2.30;;;2.20;;
17925;SDS011;9088;55.674;13.354;2023-04-03T10:56:21;2.30;;;2.20;;
17925;SDS011;9088;55.674;13.354;2023-04-03T10:58:53;2.30;;;2.20;;
17925;SDS011;9088;55.674;13.354;2023-04-03T11:01:24;2.30;;;2.20;;
17925;SDS011;9088;55.674;13.354;2023-04-03T11:03:54;2.40;;;2.30;;
17925;SDS011;9088;55.674;13.354;2023-04-03T11:06:24;2.40;;;2.30;;
17925;SDS011;9088;55.674;13.354;2023-04-03T11:08:56;2.43;;;2.33;;
17925;SDS011;9088;55.674;13.354;2023-04-03T11:11:25;2.37;;;2.27;;
17925;SDS011;9088;55.674;13.354;2023-04-03T11:13:54;2.30;;;2.20;;
17925;SDS011;9088;55.674;13.354;2023-04-03T11:16:23;2.30;;;2.20;;
17925;SDS011;9088;55.674;13.354;2023-04-03T11:18:52;2.40;;;2.30;;
17925;SDS011;9088;55.674;13.354;2023-04-03T11:21:21;2.30;;;2.20;;
17925;SDS011;9088;55.674;13.354;2023-04-03T11:23:49;2.30;;;2.20;;
17925;SDS011;9088;55.674;13.354;2023-04-03T11:26:18;2.17;;;2.07;;
17925;SDS011;9088;55.674;13.354;2023-04-03T11:28:46;2.43;;;2.33;;
17925;SDS011;9088;55.674;13.354;2023-04-03T11:31:29;2.43;;;2.33;;
17925;SDS011;9088;55.674;13.354;2023-04-03T11:34:02;2.23;;;2.13;;
17925;SDS011;9088;55.674;13.354;2023-04-03T11:36:32;2.50;;;2.40;;
17925;SDS011;9088;55.674;13.354;2023-04-03T11:39:02;2.10;;;2.00;;
17925;SDS011;9088;55.674;13.354;2023-04-03T11:41:33;2.33;;;2.23;;
17925;SDS011;9088;55.674;13.354;2023-04-03T11:44:01;2.20;;;2.10;;
17925;SDS011;9088;55.674;13.354;2023-04-03T11:51:58;2.13;;;2.03;;
17925;SDS011;9088;55.674;13.354;2023-04-03T11:54:36;1.80;;;1.80;;
17925;SDS011;9088;55.674;13.354;2023-04-03T11:59:45;1.93;;;1.90;;
17925;SDS011;9088;55.674;13.354;2023-04-03T12:07:37;2.10;;;2.00;;
17925;SDS011;9088;55.674;13.354;2023-04-03T12:10:16;2.38;;;2.28;;
17925;SDS011;9088;55.674;13.354;2023-04-03T12:12:57;2.40;;;2.30;;
17925;SDS011;9088;55.674;13.354;2023-04-03T12:18:31;2.37;;;2.27;;
17925;SDS011;9088;55.674;13.354;2023-04-03T12:20:58;2.23;;;2.13;;
17925;SDS011;9088;55.674;13.354;2023-04-03T12:23:28;2.23;;;2.13;;
17925;SDS011;9088;55.674;13.354;2023-04-03T12:26:00;2.20;;;2.10;;
17925;SDS011;9088;55.674;13.354;2023-04-03T12:28:29;2.20;;;2.10;;
17925;SDS011;9088;55.674;13.354;2023-04-03T12:30:57;2.17;;;2.07;;
17925;SDS011;9088;55.674;13.354;2023-04-03T12:33:30;2.10;;;2.00;;
17925;SDS011;9088;55.674;13.354;2023-04-03T12:36:04;2.30;;;2.20;;
17925;SDS011;9088;55.674;13.354;2023-04-03T12:38:44;2.43;;;2.33;;
17925;SDS011;9088;55.674;13.354;2023-04-03T12:41:23;2.30;;;2.20;;
17925;SDS011;9088;55.674;13.354;2023-04-03T12:44:01;2.30;;;2.20;;
17925;SDS011;9088;55.674;13.354;2023-04-03T12:46:33;2.20;;;2.10;;
17925;SDS011;9088;55.674;13.354;2023-04-03T12:49:10;2.30;;;2.20;;
17925;SDS011;9088;55.674;13.354;2023-04-03T12:51:40;2.37;;;2.27;;
17925;SDS011;9088;55.674;13.354;2023-04-03T12:54:14;2.30;;;2.20;;
17925;SDS011;9088;55.674;13.354;2023-04-03T12:56:42;2.30;;;2.20;;
17925;SDS011;9088;55.674;13.354;2023-04-03T12:59:14;2.30;;;2.20;;
17925;SDS011;9088;55.674;13.354;2023-04-03T13:01:42;2.50;;;2.40;;
17925;SDS011;9088;55.674;13.354;2023-04-03T13:04:10;2.60;;;2.50;;
17925;SDS011;9088;55.674;13.354;2023-04-03T13:06:38;2.23;;;2.13;;
17925;SDS011;9088;55.674;13.354;2023-04-03T13:09:06;2.50;;;2.40;;
17925;SDS011;9088;55.674;13.354;2023-04-03T13:11:43;2.50;;;2.40;;
17925;SDS011;9088;55.674;13.354;2023-04-03T13:14:14;2.40;;;2.30;;
17925;SDS011;9088;55.674;13.354;2023-04-03T13:16:42;2.30;;;2.20;;
17925;SDS011;9088;55.674;13.354;2023-04-03T13:19:15;2.60;;;2.50;;
17925;SDS011;9088;55.674;13.354;2023-04-03T13:21:42;2.47;;;2.37;;
17925;SDS011;9088;55.674;13.354;2023-04-03T13:24:10;2.70;;;2.60;;
17925;SDS011;9088;55.674;13.354;2023-04-03T13:26:37;2.50;;;2.40;;
17925;SDS011;9088;55.674;13.354;2023-04-03T13:29:06;2.70;;;2.60;;
17925;SDS011;9088;55.674;13.354;2023-04-03T13:31:35;2.60;;;2.50;;
17925;SDS011;9088;55.674;13.354;2023-04-03T13:34:03;2.70;;;2.60;;
17925;SDS011;9088;55.674;13.354;2023-04-03T13:36:32;2.70;;;2.60;;
17925;SDS011;9088;55.674;13.354;2023-04-03T13:39:01;2.70;;;2.60;;
17925;SDS011;9088;55.674;13.354;2023-04-03T13:41:30;2.50;;;2.40;;
17925;SDS011;9088;55.674;13.354;2023-04-03T13:46:41;2.77;;;2.67;;
17925;SDS011;9088;55.674;13.354;2023-04-03T13:49:17;2.70;;;2.60;;
17925;SDS011;9088;55.674;13.354;2023-04-03T13:51:44;2.80;;;2.70;;
17925;SDS011;9088;55.674;13.354;2023-04-03T13:54:16;2.80;;;2.70;;
17925;SDS011;9088;55.674;13.354;2023-04-03T13:56:44;2.80;;;2.70;;
17925;SDS011;9088;55.674;13.354;2023-04-03T13:59:21;2.90;;;2.80;;
17925;SDS011;9088;55.674;13.354;2023-04-03T14:01:50;2.87;;;2.77;;
17925;SDS011;9088;55.674;13.354;2023-04-03T14:04:19;2.60;;;2.50;;
17925;SDS011;9088;55.674;13.354;2023-04-03T14:06:46;2.80;;;2.70;;
17925;SDS011;9088;55.674;13.354;2023-04-03T14:09:14;2.70;;;2.60;;
17925;SDS011;9088;55.674;13.354;2023-04-03T14:11:41;2.70;;;2.60;;
17925;SDS011;9088;55.674;13.354;2023-04-03T14:14:11;2.83;;;2.73;;
17925;SDS011;9088;55.674;13.354;2023-04-03T14:16:40;2.60;;;2.50;;
17925;SDS011;9088;55.674;13.354;2023-04-03T14:19:12;2.73;;;2.63;;
17925;SDS011;9088;55.674;13.354;2023-04-03T14:21:43;2.50;;;2.40;;
17925;SDS011;9088;55.674;13.354;2023-04-03T14:24:10;2.25;;;2.15;;
17925;SDS011;9088;55.674;13.354;2023-04-03T14:26:37;2.50;;;2.40;;
17925;SDS011;9088;55.674;13.354;2023-04-03T14:29:04;2.90;;;2.80;;
17925;SDS011;9088;55.674;13.354;2023-04-03T14:31:32;2.97;;;2.87;;
17925;SDS011;9088;55.674;13.354;2023-04-03T14:33:59;2.97;;;2.87;;
17925;SDS011;9088;55.674;13.354;2023-04-03T14:36:29;2.93;;;2.83;;
17925;SDS011;9088;55.674;13.354;2023-04-03T14:38:56;2.80;;;2.70;;
17925;SDS011;9088;55.674;13.354;2023-04-03T14:41:24;2.80;;;2.70;;
17925;SDS011;9088;55.674;13.354;2023-04-03T14:43:52;2.93;;;2.83;;
17925;SDS011;9088;55.674;13.354;2023-04-03T14:46:20;2.70;;;2.60;;
17925;SDS011;9088;55.674;13.354;2023-04-03T14:48:48;2.50;;;2.40;;
17925;SDS011;9088;55.674;13.354;2023-04-03T14:51:15;2.60;;;2.50;;
17925;SDS011;9088;55.674;13.354;2023-04-03T14:53:43;2.70;;;2.60;;
17925;SDS011;9088;55.674;13.354;2023-04-03T14:56:11;2.60;;;2.50;;
17925;SDS011;9088;55.674;13.354;2023-04-03T14:58:39;2.50;;;2.40;;
17925;SDS011;9088;55.674;13.354;2023-04-03T15:01:06;2.60;;;2.50;;
17925;SDS011;9088;55.674;13.354;2023-04-03T15:03:33;2.80;;;2.70;;
17925;SDS011;9088;55.674;13.354;2023-04-03T15:06:00;2.70;;;2.60;;
17925;SDS011;9088;55.674;13.354;2023-04-03T15:08:27;2.80;;;2.70;;
17925;SDS011;9088;55.674;13.354;2023-04-03T15:10:57;2.83;;;2.73;;
17925;SDS011;9088;55.674;13.354;2023-04-03T15:13:24;3.00;;;2.90;;
17925;SDS011;9088;55.674;13.354;2023-04-03T15:15:51;2.87;;;2.77;;
17925;SDS011;9088;55.674;13.354;2023-04-03T15:18:20;2.70;;;2.60;;
17925;SDS011;9088;55.674;13.354;2023-04-03T15:20:47;2.80;;;2.70;;
17925;SDS011;9088;55.674;13.354;2023-04-03T15:23:15;2.60;;;2.50;;
17925;SDS011;9088;55.674;13.354;2023-04-03T15:25:42;2.80;;;2.70;;